Airport Name : Ayers Rock Connellan

Other Name : Ayers Rock

ICAO : YAYE

IATA : AYQ

FAA :

Latitude : -25.186111

Longitude : 130.975556

Country : Australia

Local Date and Time : 30 Nov 2020 02:08

 

TAF (Terminal Aerodrome Forecast)

 

METAR (METeorological Aerodrome Report)

YAYE 291600Z AUTO 10011KT 9999 // NCD 31/09 Q1008

YAYE 291500Z AUTO 09014KT 9999 // NCD 32/09 Q1009

YAYE 291400Z AUTO 11011KT 9999 // NCD 32/09 Q1009

YAYE 291300Z AUTO 11013KT 9999 // NCD 34/09 Q1009

To Charter a Jet Click here.